Time;durP1;ratioP1;P1;durP2;ratioP2;P2;SDS_P1;SDS_P2;PMS_P1;PMS_P2;Temp;Humidity;BMP_temperature;BMP_pressure;BME280_temperature;BME280_humidity;BME280_pressure;Samples;Min_cycle;Max_cycle;Signal;HPM_P1;HPM_P2
2023/12/09 03:27:34;;;;;;;6.88;4.53;;;;;;;3.12;100.00;100764.22;4873420;29;20207;-84
2023/12/09 04:58:18;;;;;;;11.50;9.18;;;;;;;3.13;100.00;100763.22;4793513;30;20221;-84
2023/12/09 07:10:27;;;;;;;15.98;11.85;;;;;;;3.60;100.00;100747.59;4908912;29;20197;-84
2023/12/09 09:37:52;;;;;;;10.60;5.35;;;;;;;4.92;100.00;100695.69;4951893;29;20204;-81
2023/12/09 09:41:50;;;;;;;11.68;6.95;;;;;;;5.05;100.00;100696.84;5000228;28;20196;-80
2023/12/09 09:49:35;;;;;;;8.75;4.47;;;;;;;4.98;100.00;100695.88;5041594;28;20197;-80
2023/12/09 09:53:13;;;;;;;7.40;3.58;;;;;;;5.21;100.00;100682.56;5032933;28;20236;-80
2023/12/09 09:55:59;;;;;;;12.70;6.03;;;;;;;5.16;100.00;100687.59;5044457;28;20247;-79
2023/12/09 10:00:21;;;;;;;11.93;4.90;;;;;;;4.96;100.00;100687.13;5040814;28;20204;-80
2023/12/09 10:03:40;;;;;;;5.90;4.32;;;;;;;5.01;100.00;100678.56;5034619;28;20303;-80
2023/12/09 10:10:55;;;;;;;7.05;5.97;;;;;;;5.04;100.00;100656.78;5056086;28;20227;-80
2023/12/09 10:19:13;;;;;;;8.63;5.38;;;;;;;4.99;100.00;100651.09;5024226;28;20209;-81
2023/12/09 10:50:43;;;;;;;7.88;4.93;;;;;;;5.54;100.00;100610.78;4974326;28;20199;-83
2023/12/09 11:09:22;;;;;;;5.55;4.78;;;;;;;5.94;100.00;100580.19;5025645;28;20194;-81
2023/12/09 11:16:07;;;;;;;5.95;3.70;;;;;;;5.91;100.00;100576.00;5018789;28;20198;-81
2023/12/09 11:18:37;;;;;;;8.13;4.32;;;;;;;5.91;100.00;100564.41;5024474;28;20239;-80
2023/12/09 11:21:10;;;;;;;6.30;3.63;;;;;;;5.94;100.00;100554.16;5029915;28;20182;-81
2023/12/09 11:23:45;;;;;;;6.95;4.60;;;;;;;6.09;100.00;100546.16;5029902;28;20213;-79
2023/12/09 11:26:22;;;;;;;5.07;4.68;;;;;;;6.05;100.00;100544.84;4991012;28;20217;-79
2023/12/09 11:29:02;;;;;;;9.45;5.35;;;;;;;6.21;100.00;100544.69;5045793;28;20272;-79
2023/12/09 11:31:38;;;;;;;8.55;5.07;;;;;;;5.97;100.00;100536.84;5063893;28;20238;-79
2023/12/09 11:34:09;;;;;;;8.40;4.03;;;;;;;6.05;100.00;100539.47;5062982;28;20192;-80
2023/12/09 11:36:40;;;;;;;8.77;3.78;;;;;;;6.11;100.00;100541.41;5078838;28;20184;-79
2023/12/09 11:39:12;;;;;;;5.95;5.05;;;;;;;6.12;100.00;100529.66;5063302;28;20187;-80
2023/12/09 11:41:42;;;;;;;6.47;5.05;;;;;;;6.14;100.00;100527.63;5044154;28;20284;-83
2023/12/09 11:44:12;;;;;;;4.57;4.00;;;;;;;6.36;100.00;100526.72;5058642;28;20204;-80
2023/12/09 11:46:42;;;;;;;4.55;2.60;;;;;;;6.23;100.00;100526.53;5042290;28;20250;-80
2023/12/09 11:49:12;;;;;;;6.15;4.80;;;;;;;6.10;100.00;100520.94;5060772;28;20235;-78
2023/12/09 11:51:43;;;;;;;3.65;3.10;;;;;;;6.11;100.00;100531.50;5060956;28;20213;-78
2023/12/09 11:54:13;;;;;;;4.95;3.25;;;;;;;6.06;100.00;100520.47;5042049;28;20201;-77
2023/12/09 11:56:42;;;;;;;5.38;4.88;;;;;;;6.14;100.00;100516.88;5066866;28;20184;-77
2023/12/09 11:59:12;;;;;;;4.30;3.63;;;;;;;6.26;100.00;100503.81;5042075;28;20200;-78
2023/12/09 12:01:43;;;;;;;5.65;4.63;;;;;;;6.34;100.00;100501.88;5059723;28;20299;-78
2023/12/09 12:04:12;;;;;;;11.02;5.15;;;;;;;6.34;100.00;100487.63;5076951;28;20168;-77
2023/12/09 12:06:44;;;;;;;8.15;3.72;;;;;;;6.27;100.00;100478.63;5070165;28;20197;-77
2023/12/09 12:09:14;;;;;;;5.70;3.35;;;;;;;6.43;100.00;100476.59;5045601;28;20184;-77
2023/12/09 12:11:44;;;;;;;3.67;2.80;;;;;;;6.33;100.00;100468.00;5057789;28;20272;-78
2023/12/09 12:14:17;;;;;;;11.00;4.10;;;;;;;6.33;100.00;100472.53;5059162;28;20173;-74
2023/12/09 12:16:47;;;;;;;2.60;1.80;;;;;;;6.29;100.00;100477.44;5077673;28;20164;-75
2023/12/09 12:19:24;;;;;;;3.55;1.35;;;;;;;6.27;100.00;100468.72;5060387;28;20208;-75
2023/12/09 12:21:56;;;;;;;4.65;3.45;;;;;;;6.47;100.00;100464.47;5069327;28;20224;-75
2023/12/09 12:24:29;;;;;;;4.88;4.57;;;;;;;6.60;100.00;100468.34;5051080;28;20157;-75
2023/12/09 12:26:59;;;;;;;9.18;3.30;;;;;;;6.68;100.00;100468.25;5045442;28;20224;-77
2023/12/09 12:29:29;;;;;;;5.32;2.53;;;;;;;6.54;100.00;100469.91;5053201;28;20246;-77
2023/12/09 12:32:00;;;;;;;7.22;3.67;;;;;;;6.62;100.00;100460.94;5078314;28;20265;-77
2023/12/09 12:34:30;;;;;;;7.97;3.95;;;;;;;6.61;100.00;100464.63;5078958;28;20191;-77
2023/12/09 12:37:01;;;;;;;2.90;2.33;;;;;;;6.66;100.00;100457.69;5066798;28;20177;-77
2023/12/09 12:39:31;;;;;;;4.60;4.05;;;;;;;6.54;100.00;100454.63;5065032;28;20181;-77
2023/12/09 12:42:01;;;;;;;6.40;3.63;;;;;;;6.61;100.00;100457.41;5066140;28;20216;-77
2023/12/09 12:44:34;;;;;;;5.88;3.05;;;;;;;6.62;100.00;100456.38;5065914;28;20253;-77
2023/12/09 12:47:07;;;;;;;5.72;3.72;;;;;;;6.73;100.00;100441.63;5066391;28;20197;-77
2023/12/09 12:49:37;;;;;;;7.28;4.75;;;;;;;6.61;100.00;100443.13;5061926;28;20228;-77
2023/12/09 12:52:12;;;;;;;5.18;3.08;;;;;;;6.43;100.00;100436.28;5062605;28;20220;-77
2023/12/09 12:54:45;;;;;;;4.88;2.80;;;;;;;6.38;100.00;100422.59;5059126;28;20280;-77
2023/12/09 12:57:18;;;;;;;6.50;3.58;;;;;;;6.27;100.00;100419.50;5057140;28;20242;-77
2023/12/09 12:59:48;;;;;;;4.65;2.80;;;;;;;6.24;100.00;100407.31;5058252;28;20177;-77
2023/12/09 13:02:19;;;;;;;4.90;2.78;;;;;;;6.38;100.00;100398.41;5056709;28;20209;-77
2023/12/09 13:04:49;;;;;;;4.07;3.25;;;;;;;6.36;100.00;100394.22;5059105;28;20185;-78
2023/12/09 13:07:20;;;;;;;3.33;2.38;;;;;;;6.29;100.00;100390.63;5049034;28;20209;-78
2023/12/09 13:09:49;;;;;;;5.90;2.72;;;;;;;6.57;100.00;100393.44;5058272;28;20661;-76
2023/12/09 13:12:22;;;;;;;2.95;2.65;;;;;;;6.50;100.00;100399.56;5063917;28;20312;-78
2023/12/09 13:14:53;;;;;;;8.23;2.97;;;;;;;6.59;100.00;100397.59;5071240;28;20196;-77
2023/12/09 13:17:23;;;;;;;2.70;2.47;;;;;;;6.49;100.00;100402.44;5062816;28;20534;-77
2023/12/09 13:19:52;;;;;;;4.88;3.53;;;;;;;6.56;100.00;100376.47;5046938;28;20196;-77
2023/12/09 13:22:24;;;;;;;5.25;2.85;;;;;;;6.66;100.00;100365.44;5077948;28;20250;-77
2023/12/09 13:24:54;;;;;;;5.68;3.75;;;;;;;6.85;100.00;100364.81;5083045;28;20212;-77
2023/12/09 13:27:24;;;;;;;6.53;4.00;;;;;;;6.75;100.00;100356.22;5066582;28;20647;-77
2023/12/09 13:29:54;;;;;;;4.22;3.25;;;;;;;6.68;100.00;100352.63;5040471;28;20207;-77
2023/12/09 13:32:24;;;;;;;4.28;3.88;;;;;;;6.81;100.00;100347.41;5065753;28;20240;-77
2023/12/09 13:34:53;;;;;;;2.42;2.08;;;;;;;6.94;100.00;100339.44;5045104;28;20201;-77
2023/12/09 13:37:24;;;;;;;3.40;2.15;;;;;;;7.01;100.00;100332.28;5053802;28;20212;-76
2023/12/09 13:39:54;;;;;;;3.00;2.55;;;;;;;7.13;100.00;100333.41;5059545;28;20556;-77
2023/12/09 13:42:28;;;;;;;4.45;2.15;;;;;;;7.14;100.00;100332.41;5059207;28;20216;-78
2023/12/09 13:44:58;;;;;;;6.30;3.08;;;;;;;7.07;100.00;100330.69;5048080;28;20184;-76
2023/12/09 13:47:28;;;;;;;7.00;2.75;;;;;;;7.00;100.00;100330.63;5074119;28;20268;-77
2023/12/09 13:49:57;;;;;;;3.70;2.38;;;;;;;6.98;100.00;100328.13;5056634;28;20208;-76
2023/12/09 13:52:31;;;;;;;2.97;2.63;;;;;;;6.76;100.00;100328.31;5055168;28;20204;-77
2023/12/09 13:55:01;;;;;;;4.65;3.10;;;;;;;6.53;100.00;100331.16;5057611;28;20191;-77
2023/12/09 13:57:31;;;;;;;7.47;3.47;;;;;;;6.35;100.00;100336.09;5065361;28;20193;-77
2023/12/09 14:00:07;;;;;;;4.05;2.40;;;;;;;6.30;100.00;100335.84;5058489;28;20177;-76
2023/12/09 14:02:37;;;;;;;3.50;2.80;;;;;;;6.01;100.00;100340.22;5063651;28;20205;-77
2023/12/09 14:05:13;;;;;;;6.50;1.98;;;;;;;5.95;100.00;100332.09;5067920;28;20216;-76
2023/12/09 14:07:44;;;;;;;4.50;1.77;;;;;;;5.85;100.00;100324.28;5080148;28;20208;-77
2023/12/09 14:10:16;;;;;;;3.13;2.33;;;;;;;5.93;100.00;100326.06;5084323;28;20202;-76
2023/12/09 14:12:47;;;;;;;2.70;2.38;;;;;;;5.72;100.00;100323.25;5084265;28;20405;-78
2023/12/09 14:15:17;;;;;;;2.42;1.70;;;;;;;5.60;100.00;100323.72;5047239;28;20197;-76
2023/12/09 14:17:46;;;;;;;3.95;3.13;;;;;;;5.61;100.00;100309.28;5062642;28;20604;-76
2023/12/09 14:20:17;;;;;;;3.42;2.55;;;;;;;5.65;100.00;100305.22;5083414;28;20235;-77
2023/12/09 14:22:48;;;;;;;4.05;2.00;;;;;;;5.50;100.00;100293.63;5056529;28;20236;-77
2023/12/09 14:25:18;;;;;;;4.10;2.38;;;;;;;5.56;100.00;100292.06;5064043;28;20196;-77
2023/12/09 14:27:50;;;;;;;2.35;2.03;;;;;;;5.47;100.00;100299.34;5073934;28;20254;-77
2023/12/09 14:30:21;;;;;;;3.10;2.35;;;;;;;5.36;100.00;100294.44;5069181;28;20192;-76
2023/12/09 14:32:51;;;;;;;6.18;3.15;;;;;;;5.28;100.00;100278.41;5071289;28;20280;-76
2023/12/09 14:35:20;;;;;;;3.35;2.85;;;;;;;5.12;100.00;100290.16;5049950;28;20197;-78
2023/12/09 14:37:51;;;;;;;4.50;3.13;;;;;;;5.13;100.00;100280.25;5082565;28;20195;-75
2023/12/09 14:40:20;;;;;;;3.70;2.55;;;;;;;4.92;100.00;100267.53;5088909;28;20183;-76
2023/12/09 14:42:50;;;;;;;4.32;3.40;;;;;;;4.80;100.00;100269.78;5086975;28;20208;-77
2023/12/09 14:45:20;;;;;;;5.38;4.90;;;;;;;4.74;100.00;100265.16;5062112;28;20180;-75
2023/12/09 14:47:49;;;;;;;5.22;3.28;;;;;;;4.70;100.00;100255.81;5076510;28;20216;-75
2023/12/09 14:50:29;;;;;;;4.78;3.60;;;;;;;4.65;100.00;100247.47;5062827;28;20248;-77
2023/12/09 14:53:03;;;;;;;6.85;2.83;;;;;;;4.58;100.00;100233.13;5067319;28;20216;-78
2023/12/09 14:55:32;;;;;;;7.65;4.10;;;;;;;4.63;100.00;100219.19;5066022;28;20204;-77
2023/12/09 14:58:02;;;;;;;4.55;4.15;;;;;;;4.64;100.00;100210.16;5044561;28;20185;-77
2023/12/09 15:00:32;;;;;;;2.70;2.28;;;;;;;4.73;100.00;100209.91;5039269;28;20212;-77
2023/12/09 15:03:02;;;;;;;6.30;4.30;;;;;;;4.56;100.00;100216.41;5062603;28;20201;-76
2023/12/09 15:05:35;;;;;;;4.70;3.20;;;;;;;4.60;100.00;100215.00;5061964;28;20188;-77
2023/12/09 15:08:07;;;;;;;6.40;4.60;;;;;;;4.42;100.00;100208.31;5062256;28;20279;-76
2023/12/09 15:10:37;;;;;;;6.00;3.75;;;;;;;4.52;100.00;100209.72;5061273;28;20287;-76
2023/12/09 15:13:07;;;;;;;6.70;3.78;;;;;;;4.38;100.00;100208.66;5052166;28;20220;-77
2023/12/09 15:15:36;;;;;;;3.15;2.40;;;;;;;4.31;100.00;100198.84;5051015;28;20208;-76
2023/12/09 15:18:06;;;;;;;8.80;3.45;;;;;;;4.32;100.00;100197.81;5075679;28;20316;-77
2023/12/09 15:20:35;;;;;;;8.13;5.85;;;;;;;4.46;100.00;100186.34;5087204;28;20251;-77
2023/12/09 15:23:06;;;;;;;5.50;3.45;;;;;;;4.22;100.00;100189.19;5089218;28;20214;-77
2023/12/09 15:25:39;;;;;;;4.72;3.40;;;;;;;4.05;100.00;100182.28;5090361;28;20195;-77
2023/12/09 15:28:08;;;;;;;10.90;3.63;;;;;;;4.23;100.00;100180.16;5076627;28;20224;-76
2023/12/09 15:30:40;;;;;;;5.95;2.95;;;;;;;4.05;100.00;100177.78;5067833;28;20678;-77
2023/12/09 15:33:10;;;;;;;3.30;3.00;;;;;;;4.22;100.00;100173.13;5070102;28;20304;-76
2023/12/09 15:35:40;;;;;;;2.55;2.35;;;;;;;4.23;100.00;100162.25;5081895;28;20214;-76
2023/12/09 15:38:13;;;;;;;5.45;2.65;;;;;;;4.16;100.00;100164.00;5081687;28;20202;-77
2023/12/09 15:40:44;;;;;;;3.83;2.70;;;;;;;4.11;100.00;100162.84;5059137;28;20212;-78
2023/12/09 15:43:16;;;;;;;7.63;5.38;;;;;;;4.34;100.00;100166.34;5058300;28;20285;-77
2023/12/09 15:46:31;;;;;;;8.07;3.00;;;;;;;4.32;100.00;100163.00;5053404;28;20247;-77
2023/12/09 15:49:02;;;;;;;2.67;1.85;;;;;;;4.23;100.00;100159.56;5058733;28;20212;-76
2023/12/09 15:51:31;;;;;;;4.13;3.72;;;;;;;4.26;100.00;100156.53;5058018;28;20591;-78
2023/12/09 15:54:02;;;;;;;4.78;3.15;;;;;;;4.15;100.00;100156.97;5054653;28;20196;-77
2023/12/09 15:56:32;;;;;;;3.22;2.05;;;;;;;4.08;100.00;100144.44;5065095;28;20691;-79
2023/12/09 15:59:02;;;;;;;5.93;3.75;;;;;;;4.11;100.00;100144.09;5067336;28;20212;-77
2023/12/09 16:01:31;;;;;;;3.35;3.03;;;;;;;4.31;100.00;100123.84;5053675;28;20220;-76
2023/12/09 16:04:01;;;;;;;4.47;3.28;;;;;;;4.12;100.00;100119.81;5052053;28;20296;-76
2023/12/09 16:06:31;;;;;;;3.75;3.40;;;;;;;3.98;100.00;100112.56;5064180;28;20231;-78
2023/12/09 16:09:03;;;;;;;5.68;3.65;;;;;;;4.09;100.00;100111.31;5048689;28;20217;-77
2023/12/09 16:11:33;;;;;;;3.65;3.05;;;;;;;4.15;100.00;100113.28;5045272;28;20216;-77
2023/12/09 16:14:03;;;;;;;6.57;5.85;;;;;;;4.22;100.00;100111.53;5052674;28;20207;-77
2023/12/09 16:16:32;;;;;;;3.70;3.45;;;;;;;4.17;100.00;100111.25;5060728;28;20181;-77
2023/12/09 16:19:02;;;;;;;5.05;3.33;;;;;;;4.08;100.00;100097.09;5064214;28;20157;-78
2023/12/09 16:21:32;;;;;;;2.97;2.72;;;;;;;4.03;100.00;100098.63;5068391;28;20581;-78
2023/12/09 16:24:02;;;;;;;6.47;3.88;;;;;;;4.04;100.00;100090.44;5084114;28;20185;-77
2023/12/09 16:26:32;;;;;;;4.68;3.58;;;;;;;4.06;100.00;100087.59;5082457;28;20172;-78
2023/12/09 16:29:02;;;;;;;7.68;4.20;;;;;;;4.08;100.00;100081.03;5060719;28;20196;-79
2023/12/09 16:31:33;;;;;;;4.53;2.92;;;;;;;4.08;100.00;100080.19;5061667;28;20200;-80
2023/12/09 16:37:34;;;;;;;8.15;4.13;;;;;;;4.04;100.00;100073.53;5081457;28;20227;-79
2023/12/09 16:40:05;;;;;;;7.70;2.85;;;;;;;3.98;100.00;100066.22;5080995;28;20228;-77
2023/12/09 16:42:34;;;;;;;3.40;2.35;;;;;;;4.02;100.00;100059.53;5081560;28;20251;-77
2023/12/09 16:45:07;;;;;;;8.40;4.22;;;;;;;4.05;100.00;100059.16;5082660;28;20197;-78
2023/12/09 16:47:37;;;;;;;6.55;2.53;;;;;;;4.04;100.00;100054.78;5084121;28;20184;-77
2023/12/09 16:50:09;;;;;;;2.85;2.20;;;;;;;3.92;100.00;100044.50;5082945;28;20188;-80
2023/12/09 16:52:43;;;;;;;6.07;2.95;;;;;;;3.94;100.00;100039.81;5086243;28;20238;-74
2023/12/09 16:55:46;;;;;;;7.00;3.17;;;;;;;3.87;100.00;100030.03;5059132;28;20204;-76
2023/12/09 16:58:16;;;;;;;6.57;4.15;;;;;;;4.03;100.00;100015.66;5054382;28;20197;-77
2023/12/09 17:00:47;;;;;;;6.18;3.13;;;;;;;4.02;100.00;100016.69;5077955;28;20207;-75
2023/12/09 17:03:17;;;;;;;6.43;5.95;;;;;;;4.04;100.00;100001.25;5083381;28;20214;-77
2023/12/09 17:05:49;;;;;;;5.65;3.92;;;;;;;4.15;100.00;100000.81;5088473;28;20256;-78
2023/12/09 17:08:19;;;;;;;4.47;4.18;;;;;;;4.14;100.00;99993.78;5083202;28;20199;-77
2023/12/09 17:10:50;;;;;;;9.05;3.85;;;;;;;4.25;100.00;99990.69;5079217;28;20195;-77
2023/12/09 17:13:20;;;;;;;9.20;4.22;;;;;;;4.19;100.00;99991.41;5079916;28;20208;-78
2023/12/09 17:15:49;;;;;;;10.35;3.85;;;;;;;4.21;100.00;99989.38;5080536;28;20639;-78
2023/12/09 17:18:19;;;;;;;9.80;4.32;;;;;;;4.16;100.00;99981.91;5078765;28;20176;-78
2023/12/09 17:20:49;;;;;;;8.25;3.92;;;;;;;4.10;100.00;99989.81;5080054;28;20251;-77
2023/12/09 17:23:18;;;;;;;3.58;3.25;;;;;;;4.25;100.00;99986.16;5077882;28;20753;-78
2023/12/09 17:25:49;;;;;;;5.30;4.50;;;;;;;4.22;100.00;99988.34;5039955;28;20197;-78
2023/12/09 17:28:19;;;;;;;7.05;4.32;;;;;;;4.06;100.00;99985.84;5072667;28;20204;-78
2023/12/09 17:30:49;;;;;;;11.45;5.57;;;;;;;4.08;100.00;99978.44;5071903;28;20238;-78
2023/12/09 17:33:18;;;;;;;5.80;3.05;;;;;;;3.92;100.00;99963.41;5051314;28;20236;-77
2023/12/09 17:35:48;;;;;;;8.48;5.95;;;;;;;3.91;100.00;99961.72;5040903;28;20267;-77
2023/12/09 17:38:18;;;;;;;9.57;5.10;;;;;;;3.91;100.00;99959.06;5061029;28;20219;-76
2023/12/09 17:40:47;;;;;;;10.75;5.20;;;;;;;3.87;100.00;99949.75;5044768;28;20184;-76
2023/12/09 17:43:18;;;;;;;7.13;3.38;;;;;;;3.84;100.00;99934.84;5056786;28;20298;-79
2023/12/09 17:45:49;;;;;;;7.25;4.00;;;;;;;3.81;100.00;99937.06;5064027;28;20183;-78
2023/12/09 17:48:23;;;;;;;5.55;3.67;;;;;;;3.78;100.00;99930.22;5064980;28;20196;-79
2023/12/09 17:50:53;;;;;;;10.20;5.97;;;;;;;3.88;100.00;99922.75;5065338;28;20177;-79
2023/12/09 17:53:23;;;;;;;7.20;6.55;;;;;;;3.75;100.00;99917.22;5063182;28;20722;-77
2023/12/09 17:55:52;;;;;;;7.70;6.30;;;;;;;3.78;100.00;99914.16;5062130;28;20185;-80
2023/12/09 17:58:23;;;;;;;9.35;3.67;;;;;;;3.71;100.00;99902.56;5063942;28;20177;-78
2023/12/09 18:00:52;;;;;;;6.88;5.00;;;;;;;3.68;100.00;99892.19;5078613;28;20248;-78
2023/12/09 18:03:25;;;;;;;8.02;4.82;;;;;;;3.68;100.00;99892.19;5055890;28;20284;-77
2023/12/09 18:05:58;;;;;;;8.07;4.72;;;;;;;3.53;100.00;99877.97;5071433;28;20172;-78
2023/12/09 18:08:28;;;;;;;7.53;5.93;;;;;;;3.48;100.00;99864.31;5074400;28;20197;-78
2023/12/09 18:10:57;;;;;;;8.40;5.45;;;;;;;3.57;100.00;99868.56;5065002;28;20595;-78
2023/12/09 18:13:28;;;;;;;12.18;4.90;;;;;;;3.56;100.00;99855.38;5053025;28;20609;-78
2023/12/09 18:15:58;;;;;;;3.95;2.95;;;;;;;3.57;100.00;99851.69;5064346;28;20374;-79
2023/12/09 18:18:27;;;;;;;7.85;6.45;;;;;;;3.46;100.00;99840.41;5061626;28;20675;-78
2023/12/09 18:20:57;;;;;;;17.30;4.35;;;;;;;3.47;100.00;99846.59;5060458;28;20654;-76
2023/12/09 18:23:27;;;;;;;5.63;4.32;;;;;;;3.42;100.00;99849.00;5059082;28;20696;-77
2023/12/09 18:25:56;;;;;;;8.43;3.53;;;;;;;3.33;100.00;99850.09;5060057;28;20193;-78
2023/12/09 18:28:28;;;;;;;7.63;5.22;;;;;;;3.31;100.00;99857.44;5041511;28;20196;-76
2023/12/09 18:30:59;;;;;;;9.07;4.72;;;;;;;3.30;100.00;99845.91;5059544;28;20203;-77
2023/12/09 18:33:30;;;;;;;5.82;5.32;;;;;;;3.30;100.00;99840.56;5059495;28;20213;-78
2023/12/09 18:36:00;;;;;;;6.20;5.55;;;;;;;3.31;100.00;99831.53;5042366;28;20199;-77
2023/12/09 18:38:29;;;;;;;8.88;4.50;;;;;;;3.32;100.00;99819.00;5061173;28;20173;-78
2023/12/09 18:40:59;;;;;;;14.02;7.20;;;;;;;3.31;100.00;99802.13;5060065;28;20197;-76
2023/12/09 18:43:32;;;;;;;5.95;3.72;;;;;;;3.32;100.00;99811.81;5041253;28;20243;-77
2023/12/09 18:46:02;;;;;;;9.10;5.43;;;;;;;3.28;100.00;99812.38;5059880;28;20181;-76
2023/12/09 18:48:32;;;;;;;3.95;2.05;;;;;;;3.31;100.00;99814.66;5056169;28;20192;-79
2023/12/09 18:51:03;;;;;;;6.68;4.70;;;;;;;3.26;100.00;99806.34;5061280;28;20178;-77
2023/12/09 18:53:36;;;;;;;11.43;4.65;;;;;;;3.26;100.00;99791.16;5057552;28;20223;-78
2023/12/09 18:56:06;;;;;;;5.65;3.70;;;;;;;3.33;100.00;99781.41;5058512;28;20223;-77
2023/12/09 18:58:37;;;;;;;15.65;6.43;;;;;;;3.42;100.00;99768.75;5064875;28;20153;-74
2023/12/09 19:01:07;;;;;;;8.50;4.53;;;;;;;3.38;100.00;99767.47;5062812;28;20217;-75
2023/12/09 19:03:40;;;;;;;6.45;3.63;;;;;;;3.32;100.00;99761.00;5079353;28;20181;-75
2023/12/09 19:06:10;;;;;;;11.48;3.42;;;;;;;3.25;100.00;99756.56;5079288;28;20211;-76
2023/12/09 19:08:41;;;;;;;9.95;6.28;;;;;;;3.27;100.00;99754.53;5081449;28;20192;-78
2023/12/09 19:11:10;;;;;;;8.95;4.65;;;;;;;3.24;100.00;99749.56;5089003;28;20198;-78
2023/12/09 19:13:44;;;;;;;3.83;3.53;;;;;;;3.33;100.00;99751.97;5064876;28;20188;-78
2023/12/09 19:16:14;;;;;;;6.05;3.75;;;;;;;3.41;100.00;99753.72;5082606;28;20172;-77
2023/12/09 19:18:44;;;;;;;12.00;4.60;;;;;;;3.34;100.00;99736.78;5064325;28;20203;-78
2023/12/09 19:21:17;;;;;;;13.15;3.85;;;;;;;3.25;100.00;99730.66;5085425;28;20184;-77
2023/12/09 19:23:47;;;;;;;7.00;6.30;;;;;;;3.34;100.00;99734.09;5084691;28;20172;-80
2023/12/09 19:26:17;;;;;;;5.07;3.00;;;;;;;3.24;100.00;99729.03;5085840;28;20219;-78
2023/12/09 19:28:48;;;;;;;25.40;5.95;;;;;;;3.23;100.00;99723.84;5083318;28;20169;-78
2023/12/09 19:31:18;;;;;;;5.93;3.88;;;;;;;3.28;100.00;99724.13;5082984;28;20173;-78
2023/12/09 19:33:48;;;;;;;3.92;3.53;;;;;;;3.23;100.00;99713.16;5084604;28;20218;-78
2023/12/09 19:36:20;;;;;;;8.75;5.00;;;;;;;3.24;100.00;99714.81;5084029;28;20230;-78
2023/12/09 19:38:52;;;;;;;4.72;4.40;;;;;;;3.31;100.00;99707.72;5066805;28;20271;-78
2023/12/09 19:41:22;;;;;;;7.97;4.60;;;;;;;3.28;100.00;99710.75;5084692;28;20175;-80
2023/12/09 19:43:54;;;;;;;4.88;3.47;;;;;;;3.21;100.00;99710.66;5082888;28;20188;-78
2023/12/09 19:46:24;;;;;;;14.90;7.47;;;;;;;3.35;100.00;99712.50;5049061;28;20448;-78
2023/12/09 19:48:55;;;;;;;5.70;5.20;;;;;;;3.24;100.00;99707.63;5054007;28;20220;-78
2023/12/09 19:51:25;;;;;;;10.02;7.43;;;;;;;3.32;100.00;99694.16;5071563;28;20260;-77
2023/12/09 19:53:55;;;;;;;13.88;5.00;;;;;;;3.33;100.00;99692.31;5078043;28;20183;-77
2023/12/09 19:56:25;;;;;;;7.00;3.47;;;;;;;3.20;100.00;99686.78;5077437;28;20173;-76
2023/12/09 19:58:56;;;;;;;6.28;5.40;;;;;;;3.22;100.00;99668.72;5077074;28;20180;-76
2023/12/09 20:01:25;;;;;;;4.32;3.80;;;;;;;3.27;100.00;99656.47;5077124;28;20172;-75
2023/12/09 20:03:55;;;;;;;7.10;5.63;;;;;;;3.26;100.00;99659.31;5067335;28;20295;-77
2023/12/09 20:06:27;;;;;;;7.88;4.05;;;;;;;3.24;100.00;99658.69;5055198;28;20203;-78
2023/12/09 20:09:02;;;;;;;8.90;5.32;;;;;;;3.18;100.00;99664.75;5061245;28;20199;-78
2023/12/09 20:11:31;;;;;;;9.70;3.97;;;;;;;3.11;100.00;99661.16;5076608;28;20227;-78
2023/12/09 20:14:02;;;;;;;7.00;6.20;;;;;;;3.20;100.00;99657.38;5061161;28;20235;-78
2023/12/09 20:16:35;;;;;;;6.50;4.55;;;;;;;3.22;100.00;99655.34;5059591;28;20207;-80
2023/12/09 20:19:05;;;;;;;8.05;3.15;;;;;;;3.24;100.00;99642.63;5059092;28;20201;-77
2023/12/09 20:21:37;;;;;;;5.93;3.70;;;;;;;3.19;100.00;99642.38;5057854;28;20209;-79
2023/12/09 20:24:07;;;;;;;6.90;3.83;;;;;;;3.30;100.00;99641.88;5064497;28;20207;-77
2023/12/09 20:26:40;;;;;;;8.82;5.32;;;;;;;3.34;100.00;99632.50;5061589;28;20215;-79
2023/12/09 20:29:14;;;;;;;6.78;4.20;;;;;;;3.36;100.00;99630.44;5045762;28;20708;-79
2023/12/09 20:31:44;;;;;;;5.03;3.85;;;;;;;3.29;100.00;99624.19;5060055;28;20228;-79
2023/12/09 20:34:14;;;;;;;9.88;8.02;;;;;;;3.30;100.00;99620.47;5055734;28;20185;-79
2023/12/09 20:36:47;;;;;;;8.85;5.28;;;;;;;3.29;100.00;99608.97;5043665;28;20209;-77
2023/12/09 20:39:21;;;;;;;9.25;4.00;;;;;;;3.28;100.00;99610.00;5044570;28;20192;-79
2023/12/09 20:41:50;;;;;;;8.15;3.35;;;;;;;3.32;100.00;99613.13;5061700;28;20229;-78
2023/12/09 20:44:21;;;;;;;9.75;4.10;;;;;;;3.23;100.00;99603.53;5058923;28;20203;-79
2023/12/09 20:46:51;;;;;;;8.68;6.13;;;;;;;3.47;100.00;99624.63;5061469;28;20648;-78
2023/12/09 20:49:22;;;;;;;7.65;6.93;;;;;;;3.46;100.00;99614.94;5041063;28;20203;-78
2023/12/09 20:51:55;;;;;;;7.78;4.35;;;;;;;3.33;100.00;99617.47;5065057;28;20218;-77
2023/12/09 20:54:24;;;;;;;8.18;5.68;;;;;;;3.50;100.00;99613.53;5067882;28;20188;-77
2023/12/09 20:56:54;;;;;;;8.05;5.47;;;;;;;3.35;100.00;99608.22;5070404;28;20240;-79
2023/12/09 20:59:26;;;;;;;7.40;6.55;;;;;;;3.41;100.00;99612.00;5054406;28;20550;-77
2023/12/09 21:01:56;;;;;;;19.80;5.72;;;;;;;3.56;100.00;99604.78;5071159;28;20626;-76
2023/12/09 21:04:26;;;;;;;8.02;3.80;;;;;;;3.66;100.00;99599.94;5070121;28;20230;-76
2023/12/09 21:06:56;;;;;;;8.10;5.05;;;;;;;3.74;100.00;99590.97;5065802;28;20173;-77
2023/12/09 22:46:25;;;;;;;4.00;2.55;;;;;;;3.85;100.00;99470.88;4942037;29;20201;-77
2023/12/09 23:11:57;;;;;;;5.22;3.00;;;;;;;3.83;100.00;99462.22;4779375;30;20233;-77
2023/12/09 23:36:33;;;;;;;2.65;2.17;;;;;;;3.71;100.00;99426.31;4893536;29;20206;-79
2023/12/09 23:39:28;;;;;;;3.47;1.77;;;;;;;3.59;100.00;99416.31;5003128;28;20217;-80
2023/12/09 23:45:31;;;;;;;4.60;2.22;;;;;;;3.64;100.00;99428.09;5071452;28;20224;-78
2023/12/09 23:48:18;;;;;;;2.53;2.33;;;;;;;3.72;100.00;99417.28;5069295;28;20177;-77
2023/12/09 23:50:48;;;;;;;6.68;2.03;;;;;;;3.78;100.00;99421.00;5059937;28;20208;-76
2023/12/09 23:53:18;;;;;;;3.50;2.42;;;;;;;3.76;100.00;99426.56;5065720;28;20247;-78
2023/12/09 23:55:47;;;;;;;3.22;2.38;;;;;;;3.69;100.00;99414.97;5072123;28;20169;-77
2023/12/09 23:58:16;;;;;;;3.78;2.50;;;;;;;3.72;100.00;99427.97;5070116;28;20184;-78
